Time;durP1;ratioP1;P1;durP2;ratioP2;P2;SDS_P1;SDS_P2;PMS_P1;PMS_P2;Temp;Humidity;BMP_temperature;BMP_pressure;BME280_temperature;BME280_humidity;BME280_pressure;Samples;Min_cycle;Max_cycle;Signal;HPM_P1;HPM_P2
2023/07/10 00:01:14;;;;;;;5.80;3.65;;;26.10;99.70;;;;;;5077404;28;20070;-84
2023/07/10 00:03:40;;;;;;;10.73;4.03;;;26.10;99.80;;;;;;5076826;28;20095;-81
2023/07/10 00:06:14;;;;;;;7.03;3.85;;;26.00;99.90;;;;;;5076264;28;20051;-80
2023/07/10 00:08:40;;;;;;;8.60;3.53;;;26.00;99.90;;;;;;5075910;28;20103;-80
2023/07/10 00:11:27;;;;;;;7.68;3.88;;;26.00;99.90;;;;;;5076777;28;20044;-82
2023/07/10 00:13:54;;;;;;;5.38;3.50;;;26.00;99.90;;;;;;5075336;28;20025;-84
2023/07/10 00:16:22;;;;;;;7.95;3.63;;;25.90;99.90;;;;;;5075203;28;20020;-87
2023/07/10 00:18:48;;;;;;;8.32;3.75;;;26.00;99.90;;;;;;5075385;28;20029;-88
2023/07/10 00:21:15;;;;;;;7.47;3.80;;;26.00;99.90;;;;;;5075813;28;20043;-86
2023/07/10 00:23:40;;;;;;;9.77;3.83;;;26.00;99.80;;;;;;5076583;28;20024;-92
2023/07/10 00:26:12;;;;;;;7.65;4.10;;;26.00;99.90;;;;;;5076656;28;20025;-85
2023/07/10 00:28:38;;;;;;;325.05;169.15;;;26.00;99.90;;;;;;5075231;28;20032;-85
2023/07/10 00:31:03;;;;;;;130.90;74.40;;;26.00;99.90;;;;;;5074682;28;20025;-84
2023/07/10 00:33:29;;;;;;;23.08;14.38;;;25.90;99.90;;;;;;5076440;28;20095;-83
2023/07/10 00:35:54;;;;;;;10.88;6.80;;;25.90;99.90;;;;;;5074319;28;20028;-81
2023/07/10 00:38:30;;;;;;;8.48;5.32;;;25.90;99.90;;;;;;5076489;28;20046;-82
2023/07/10 00:40:57;;;;;;;9.20;4.22;;;25.80;99.90;;;;;;5075011;28;20021;-84
2023/07/10 00:43:45;;;;;;;6.75;4.05;;;25.70;99.90;;;;;;5076858;28;20016;-81
2023/07/10 00:46:34;;;;;;;7.18;4.00;;;25.70;99.90;;;;;;5075167;28;20036;-83
2023/07/10 00:49:29;;;;;;;9.55;4.10;;;25.70;99.90;;;;;;5074893;28;20028;-83
2023/07/10 00:52:02;;;;;;;5.80;3.88;;;25.70;99.90;;;;;;5059643;28;20241;-83
2023/07/10 00:54:35;;;;;;;10.55;4.93;;;25.60;99.90;;;;;;5074977;28;20024;-83
2023/07/10 00:57:04;;;;;;;7.72;4.00;;;25.60;99.90;;;;;;5074779;28;20033;-82
2023/07/10 00:59:36;;;;;;;6.78;3.92;;;25.50;99.90;;;;;;5076159;28;20029;-82
2023/07/10 01:02:07;;;;;;;7.10;3.70;;;25.40;99.90;;;;;;5076445;28;20046;-82
2023/07/10 01:04:33;;;;;;;;;;;25.40;99.90;;;;;;5075200;28;20017;-83
2023/07/10 01:06:58;;;;;;;6.88;3.95;;;25.40;99.90;;;;;;5074453;28;19900;-82
2023/07/10 01:09:24;;;;;;;6.60;4.10;;;25.40;99.90;;;;;;5074595;28;20020;-82
2023/07/10 01:11:50;;;;;;;9.65;3.90;;;25.40;99.90;;;;;;5074246;28;20028;-80
2023/07/10 01:14:17;;;;;;;6.57;3.60;;;25.50;99.90;;;;;;5074088;28;20061;-82
2023/07/10 01:16:43;;;;;;;6.47;3.75;;;25.50;99.90;;;;;;5073354;28;20449;-81
2023/07/10 01:19:18;;;;;;;10.48;4.05;;;25.50;99.90;;;;;;5075679;28;20095;-81
2023/07/10 01:21:44;;;;;;;8.55;4.80;;;25.50;99.90;;;;;;5074013;28;20025;-83
2023/07/10 01:24:09;;;;;;;8.30;4.10;;;25.50;99.90;;;;;;5074588;28;20339;-81
2023/07/10 01:26:38;;;;;;;8.93;4.18;;;25.50;99.90;;;;;;5075569;28;20028;-80
2023/07/10 01:29:11;;;;;;;7.25;4.03;;;25.50;99.90;;;;;;5075407;28;20051;-81
2023/07/10 01:31:38;;;;;;;8.60;3.83;;;25.50;99.90;;;;;;5073766;28;20024;-81
2023/07/10 01:34:05;;;;;;;5.63;3.58;;;25.50;99.90;;;;;;5074554;28;20070;-80
2023/07/10 01:36:37;;;;;;;9.18;4.18;;;25.40;99.90;;;;;;5074287;28;20055;-80
2023/07/10 01:39:15;;;;;;;6.82;3.88;;;25.40;99.90;;;;;;5074079;28;20036;-81
2023/07/10 01:41:43;;;;;;;8.80;4.10;;;25.40;99.90;;;;;;5073537;28;20070;-81
2023/07/10 01:44:32;;;;;;;6.28;3.70;;;25.40;99.90;;;;;;5073577;28;20112;-79
2023/07/10 01:46:59;;;;;;;6.95;3.95;;;25.40;99.90;;;;;;5072849;28;20020;-79
2023/07/10 01:49:41;;;;;;;5.28;3.45;;;25.30;99.90;;;;;;5073609;28;20027;-81
2023/07/10 01:52:09;;;;;;;4.45;3.35;;;25.30;99.90;;;;;;5059418;28;20029;-81
2023/07/10 01:54:35;;;;;;;10.43;3.58;;;25.30;99.90;;;;;;5073543;28;20032;-81
2023/07/10 01:57:02;;;;;;;7.65;3.90;;;25.30;99.90;;;;;;5073455;28;20035;-80
2023/07/10 01:59:28;;;;;;;7.03;3.67;;;25.30;99.90;;;;;;5073500;28;20028;-80
2023/07/10 02:01:55;;;;;;;7.18;4.15;;;25.30;99.90;;;;;;5072965;28;20115;-85
2023/07/10 02:04:22;;;;;;;9.48;3.80;;;25.30;99.90;;;;;;5073265;28;20029;-84
2023/07/10 02:06:47;;;;;;;5.57;3.33;;;25.30;99.90;;;;;;5072604;28;20078;-82
2023/07/10 02:09:13;;;;;;;7.13;3.50;;;25.30;99.90;;;;;;5073524;28;20024;-80
2023/07/10 02:11:38;;;;;;;5.82;3.55;;;25.30;99.90;;;;;;5072864;28;20115;-79
2023/07/10 02:14:06;;;;;;;7.32;3.50;;;25.20;99.90;;;;;;5073705;28;20025;-80
2023/07/10 02:16:32;;;;;;;5.93;3.92;;;25.20;99.90;;;;;;5073318;28;20020;-79
2023/07/10 02:18:58;;;;;;;7.45;3.90;;;25.20;99.90;;;;;;5073664;28;20044;-78
2023/07/10 02:21:24;;;;;;;9.40;3.97;;;25.10;99.90;;;;;;5074282;28;20070;-80
2023/07/10 02:23:49;;;;;;;6.18;3.60;;;25.10;99.90;;;;;;5072995;28;20028;-83
2023/07/10 02:26:16;;;;;;;7.05;3.78;;;25.10;99.90;;;;;;5073366;28;20469;-83
2023/07/10 02:28:42;;;;;;;7.40;3.97;;;25.10;99.90;;;;;;5072928;28;20029;-82
2023/07/10 02:31:08;;;;;;;5.72;3.78;;;25.10;99.90;;;;;;5073420;28;20116;-82
2023/07/10 02:33:34;;;;;;;8.35;3.95;;;25.10;99.90;;;;;;5073210;28;20021;-83
2023/07/10 02:36:01;;;;;;;6.65;4.00;;;25.10;99.90;;;;;;5072954;28;20031;-84
2023/07/10 02:38:26;;;;;;;6.72;3.80;;;25.00;99.90;;;;;;5073439;28;20032;-84
2023/07/10 02:40:52;;;;;;;6.25;3.78;;;25.00;99.90;;;;;;5074043;28;20066;-84
2023/07/10 02:43:17;;;;;;;7.93;4.25;;;25.00;99.90;;;;;;5072643;28;20522;-82
2023/07/10 02:45:44;;;;;;;9.15;3.80;;;24.90;99.90;;;;;;5071931;28;20089;-82
2023/07/10 02:48:09;;;;;;;6.93;3.85;;;24.90;99.90;;;;;;5073126;28;20461;-83
2023/07/10 02:50:35;;;;;;;8.93;4.07;;;24.80;99.90;;;;;;5073141;28;20029;-83
2023/07/10 02:53:01;;;;;;;5.88;3.55;;;24.90;99.90;;;;;;5072728;28;20414;-84
2023/07/10 02:55:26;;;;;;;4.90;3.58;;;24.80;99.90;;;;;;5072915;28;20031;-84
2023/07/10 02:57:52;;;;;;;7.38;3.90;;;24.90;99.90;;;;;;5072761;28;20036;-84
2023/07/10 03:00:18;;;;;;;8.65;4.80;;;24.90;99.90;;;;;;5072976;28;20021;-80
2023/07/10 03:02:43;;;;;;;6.05;4.18;;;24.90;99.90;;;;;;5072041;28;20457;-80
2023/07/10 03:05:09;;;;;;;9.88;4.07;;;24.90;99.90;;;;;;5073783;28;20060;-82
2023/07/10 03:07:35;;;;;;;4.75;3.67;;;24.90;99.90;;;;;;5074041;28;20020;-81
2023/07/10 03:10:00;;;;;;;6.57;3.90;;;24.80;99.90;;;;;;5073238;28;20086;-82
2023/07/10 03:12:27;;;;;;;4.70;3.47;;;24.80;99.90;;;;;;5073500;28;20338;-81
2023/07/10 03:14:52;;;;;;;7.00;3.85;;;24.80;99.90;;;;;;5072159;28;20025;-81
2023/07/10 03:17:18;;;;;;;7.95;4.07;;;24.70;99.90;;;;;;5072899;28;20432;-81
2023/07/10 03:19:45;;;;;;;7.93;3.75;;;24.70;99.90;;;;;;5071427;28;20046;-84
2023/07/10 03:22:10;;;;;;;6.07;3.63;;;24.60;99.90;;;;;;5073132;28;20017;-89
2023/07/10 03:24:36;;;;;;;7.40;3.60;;;24.70;99.90;;;;;;5072540;28;20032;-81
2023/07/10 03:27:02;;;;;;;6.40;3.88;;;24.60;99.90;;;;;;5072570;28;20025;-82
2023/07/10 03:29:27;;;;;;;5.70;4.05;;;24.60;99.90;;;;;;5073433;28;20036;-80
2023/07/10 03:31:53;;;;;;;7.93;3.97;;;24.50;99.90;;;;;;5072093;28;20035;-80
2023/07/10 03:34:18;;;;;;;5.53;3.40;;;24.50;99.90;;;;;;5072382;28;20016;-80
2023/07/10 03:36:44;;;;;;;6.60;4.35;;;24.40;99.90;;;;;;5071867;28;20035;-81
2023/07/10 03:39:12;;;;;;;5.45;3.47;;;24.50;99.90;;;;;;5073932;28;20020;-91
2023/07/10 03:41:39;;;;;;;6.22;3.90;;;24.50;99.90;;;;;;5072950;28;20028;-82
2023/07/10 03:44:05;;;;;;;6.32;3.28;;;24.40;99.90;;;;;;5072378;28;20053;-85
2023/07/10 03:46:31;;;;;;;6.15;3.03;;;24.40;99.90;;;;;;5073218;28;20137;-84
2023/07/10 03:48:56;;;;;;;7.07;3.38;;;24.40;99.90;;;;;;5072936;28;20108;-83
2023/07/10 03:51:22;;;;;;;5.03;3.28;;;24.40;99.90;;;;;;5072488;28;20070;-84
2023/07/10 03:53:48;;;;;;;6.97;3.17;;;24.30;99.90;;;;;;5072961;28;20076;-83
2023/07/10 03:56:14;;;;;;;6.20;3.50;;;24.40;99.90;;;;;;5072445;28;20078;-84
2023/07/10 03:58:44;;;;;;;6.57;3.28;;;24.40;99.90;;;;;;5072574;28;20104;-84
2023/07/10 04:01:10;;;;;;;6.50;3.80;;;24.40;99.90;;;;;;5072788;28;20027;-84
2023/07/10 04:03:37;;;;;;;4.65;3.35;;;24.40;99.90;;;;;;5072679;28;20111;-84
2023/07/10 04:06:05;;;;;;;7.10;3.47;;;24.40;99.90;;;;;;5073431;28;20033;-83
2023/07/10 04:08:37;;;;;;;8.60;3.67;;;24.40;99.90;;;;;;5073668;28;20029;-83
2023/07/10 04:11:09;;;;;;;12.32;3.70;;;24.40;99.90;;;;;;5071830;28;20059;-83
2023/07/10 04:13:35;;;;;;;7.03;3.47;;;24.40;99.90;;;;;;5072235;28;20020;-83
2023/07/10 04:16:20;;;;;;;7.88;3.58;;;24.50;99.90;;;;;;5071921;28;20078;-83
2023/07/10 04:18:48;;;;;;;7.78;3.90;;;24.50;99.90;;;;;;5072284;28;20028;-83
2023/07/10 04:21:20;;;;;;;8.55;3.60;;;24.50;99.90;;;;;;5073443;28;20043;-83
2023/07/10 04:23:46;;;;;;;9.45;3.72;;;24.50;99.90;;;;;;5073418;28;20338;-83
2023/07/10 04:26:20;;;;;;;8.90;3.88;;;24.50;99.90;;;;;;5072773;28;20082;-84
2023/07/10 04:28:48;;;;;;;8.52;3.25;;;24.50;99.90;;;;;;5072002;28;20036;-82
2023/07/10 04:31:14;;;;;;;6.70;3.97;;;24.50;99.90;;;;;;5076114;28;20029;-84
2023/07/10 04:33:40;;;;;;;6.38;3.80;;;24.50;99.90;;;;;;5076904;28;20048;-83
2023/07/10 04:36:06;;;;;;;7.28;3.83;;;24.50;99.90;;;;;;5075568;28;20032;-84
2023/07/10 04:38:32;;;;;;;6.93;4.05;;;24.40;99.90;;;;;;5076157;28;20036;-84
2023/07/10 04:40:59;;;;;;;7.00;3.63;;;24.40;99.90;;;;;;5075533;28;20031;-84
2023/07/10 04:43:27;;;;;;;7.15;4.00;;;24.40;99.90;;;;;;5077151;28;20025;-84
2023/07/10 04:45:55;;;;;;;6.72;3.55;;;24.50;99.90;;;;;;5075585;28;20045;-84
2023/07/10 04:48:21;;;;;;;7.50;4.07;;;24.50;99.90;;;;;;5075819;28;20024;-84
2023/07/10 04:50:50;;;;;;;8.90;3.90;;;24.50;99.90;;;;;;5075490;28;20024;-82
2023/07/10 04:53:17;;;;;;;6.32;3.60;;;24.50;99.90;;;;;;5075865;28;20105;-84
2023/07/10 04:55:43;;;;;;;6.47;3.40;;;24.40;99.90;;;;;;5075647;28;20504;-84
2023/07/10 04:58:09;;;;;;;6.30;3.72;;;24.40;99.90;;;;;;5075201;28;20422;-84
2023/07/10 05:00:35;;;;;;;6.97;3.75;;;24.50;99.90;;;;;;5076727;28;20104;-85
2023/07/10 05:03:02;;;;;;;5.32;3.45;;;24.40;99.90;;;;;;5076276;28;20048;-84
2023/07/10 05:05:28;;;;;;;11.32;4.00;;;24.40;99.90;;;;;;5075609;28;20024;-84
2023/07/10 05:07:53;;;;;;;7.43;3.90;;;24.50;99.90;;;;;;5075914;28;20028;-84
2023/07/10 05:10:19;;;;;;;8.60;3.95;;;24.40;99.90;;;;;;5075487;28;20020;-84
2023/07/10 05:12:45;;;;;;;6.50;3.80;;;24.40;99.90;;;;;;5075586;28;20052;-85
2023/07/10 05:15:11;;;;;;;10.20;4.15;;;24.40;99.90;;;;;;5075262;28;20024;-84
2023/07/10 05:17:36;;;;;;;7.75;3.88;;;24.30;99.90;;;;;;5075363;28;20025;-84
2023/07/10 05:20:02;;;;;;;5.55;4.00;;;24.20;99.90;;;;;;5074712;28;20069;-84
2023/07/10 05:22:28;;;;;;;6.07;3.47;;;24.20;99.90;;;;;;5075513;28;20028;-84
2023/07/10 05:24:54;;;;;;;7.72;3.70;;;24.30;99.90;;;;;;5075671;28;20024;-84
2023/07/10 05:27:19;;;;;;;13.43;4.10;;;24.30;99.90;;;;;;5075161;28;20047;-84
2023/07/10 05:29:45;;;;;;;6.75;3.75;;;24.30;99.90;;;;;;5074891;28;20033;-84
2023/07/10 05:32:11;;;;;;;7.88;3.83;;;24.30;99.90;;;;;;5074532;28;20029;-85
2023/07/10 05:34:36;;;;;;;6.28;3.97;;;24.40;99.90;;;;;;5074882;28;20028;-83
2023/07/10 05:37:02;;;;;;;6.63;3.80;;;24.30;99.90;;;;;;5074276;28;20111;-82
2023/07/10 05:39:29;;;;;;;8.98;3.80;;;24.40;99.90;;;;;;5074610;28;20373;-82
2023/07/10 05:41:55;;;;;;;9.13;4.22;;;24.40;99.90;;;;;;5073011;28;20107;-82
2023/07/10 05:44:21;;;;;;;10.50;4.45;;;24.50;99.90;;;;;;5074320;28;20359;-82
2023/07/10 05:46:47;;;;;;;8.45;3.88;;;24.50;99.90;;;;;;5074302;28;20028;-82
2023/07/10 05:49:12;;;;;;;8.88;4.00;;;24.60;99.90;;;;;;5073867;28;20131;-83
2023/07/10 05:51:38;;;;;;;9.55;3.90;;;24.60;99.90;;;;;;5074345;28;20025;-82
2023/07/10 05:54:04;;;;;;;8.20;3.63;;;24.60;99.90;;;;;;5073495;28;20048;-83
2023/07/10 05:56:29;;;;;;;9.73;3.67;;;24.60;99.90;;;;;;5074092;28;20060;-83
2023/07/10 05:58:55;;;;;;;7.25;3.75;;;24.70;99.90;;;;;;5074189;28;20046;-84
2023/07/10 06:01:20;;;;;;;7.85;3.83;;;24.70;99.90;;;;;;5074536;28;20016;-83
2023/07/10 06:03:46;;;;;;;6.50;3.92;;;24.70;99.90;;;;;;5074315;28;20073;-84
2023/07/10 06:06:12;;;;;;;6.63;4.20;;;24.70;99.90;;;;;;5073309;28;20771;-83
2023/07/10 06:08:38;;;;;;;7.20;4.10;;;24.70;99.90;;;;;;5073866;28;20369;-83
2023/07/10 06:11:05;;;;;;;7.07;4.00;;;24.70;99.90;;;;;;5073442;28;20107;-83
2023/07/10 06:13:32;;;;;;;7.20;3.40;;;24.70;99.90;;;;;;5074046;28;20461;-83
2023/07/10 06:15:58;;;;;;;8.40;3.95;;;24.80;99.90;;;;;;5072981;28;20111;-83
2023/07/10 06:18:24;;;;;;;5.70;3.50;;;24.90;99.90;;;;;;5074087;28;20026;-84
2023/07/10 06:20:52;;;;;;;7.18;3.38;;;24.90;99.90;;;;;;5073496;28;20023;-82
2023/07/10 06:23:18;;;;;;;10.52;4.07;;;24.90;99.90;;;;;;5073630;28;20096;-83
2023/07/10 06:25:44;;;;;;;6.70;3.80;;;24.90;99.90;;;;;;5075406;28;20111;-83
2023/07/10 06:28:10;;;;;;;8.25;3.95;;;24.90;99.90;;;;;;5075148;28;20048;-83
2023/07/10 06:30:41;;;;;;;8.95;4.10;;;24.90;99.90;;;;;;5075615;28;20017;-83
2023/07/10 06:33:06;;;;;;;6.43;3.40;;;25.00;99.90;;;;;;5074301;28;20064;-83
2023/07/10 06:35:32;;;;;;;9.70;3.50;;;25.00;99.90;;;;;;5074015;28;20033;-84
2023/07/10 06:37:58;;;;;;;6.50;3.97;;;25.10;99.90;;;;;;5073495;28;20028;-83
2023/07/10 06:40:23;;;;;;;7.18;3.42;;;25.00;99.90;;;;;;5073964;28;20020;-85
2023/07/10 06:42:49;;;;;;;5.70;3.50;;;25.10;99.90;;;;;;5074432;28;20025;-84
2023/07/10 06:45:15;;;;;;;5.40;3.30;;;25.10;99.90;;;;;;5073043;28;20052;-84
2023/07/10 06:47:43;;;;;;;6.43;3.50;;;25.10;99.90;;;;;;5074848;28;20369;-84
2023/07/10 06:50:11;;;;;;;8.23;3.22;;;25.20;99.90;;;;;;5073762;28;20517;-83
2023/07/10 06:52:39;;;;;;;5.95;3.78;;;25.20;99.90;;;;;;5073252;28;20036;-83
2023/07/10 06:55:06;;;;;;;7.25;3.50;;;25.30;99.90;;;;;;5072574;28;20048;-83
2023/07/10 06:57:32;;;;;;;9.25;3.90;;;25.40;99.90;;;;;;5073047;28;20062;-83
2023/07/10 06:59:58;;;;;;;5.25;3.20;;;25.40;99.90;;;;;;5072954;28;20029;-83
2023/07/10 07:02:24;;;;;;;7.82;4.38;;;25.40;99.90;;;;;;5074577;28;20025;-83
2023/07/10 07:04:49;;;;;;;7.97;3.78;;;25.50;99.90;;;;;;5074303;28;20020;-86
2023/07/10 07:07:15;;;;;;;6.32;3.38;;;25.50;99.90;;;;;;5073102;28;20469;-86
2023/07/10 07:09:42;;;;;;;5.75;3.38;;;25.60;99.90;;;;;;5073172;28;20020;-86
2023/07/10 07:12:09;;;;;;;7.07;3.40;;;25.60;99.90;;;;;;5073685;28;20025;-83
2023/07/10 07:14:35;;;;;;;4.68;3.10;;;25.70;99.90;;;;;;5073181;28;20480;-82
2023/07/10 07:17:00;;;;;;;4.53;3.10;;;25.70;99.90;;;;;;5072365;28;20021;-81
2023/07/10 07:19:26;;;;;;;8.77;3.40;;;25.70;99.90;;;;;;5073361;28;20025;-83
2023/07/10 07:21:52;;;;;;;4.68;3.22;;;25.80;99.90;;;;;;5072649;28;20028;-83
2023/07/10 07:24:17;;;;;;;7.03;3.42;;;25.80;99.90;;;;;;5072398;28;20031;-83
2023/07/10 07:26:43;;;;;;;7.82;3.45;;;25.90;99.90;;;;;;5073794;28;20031;-83
2023/07/10 07:29:09;;;;;;;9.32;3.72;;;25.90;99.90;;;;;;5072529;28;20029;-83
2023/07/10 07:31:34;;;;;;;6.45;3.40;;;25.90;99.90;;;;;;5072720;28;20024;-83
2023/07/10 07:34:00;;;;;;;9.80;3.45;;;26.00;99.90;;;;;;5072323;28;20024;-83
2023/07/10 07:36:25;;;;;;;6.43;3.45;;;26.10;99.90;;;;;;5073740;28;20067;-83
2023/07/10 07:38:51;;;;;;;6.85;3.35;;;26.20;99.90;;;;;;5072839;28;20025;-83
2023/07/10 07:41:16;;;;;;;9.65;3.65;;;26.20;99.90;;;;;;5072292;28;20112;-83
2023/07/10 07:43:42;;;;;;;4.78;3.72;;;26.20;99.90;;;;;;5072767;28;20027;-82
2023/07/10 07:46:08;;;;;;;8.20;3.72;;;26.20;99.90;;;;;;5072271;28;20020;-83
2023/07/10 07:48:33;;;;;;;9.32;3.83;;;26.30;99.90;;;;;;5072734;28;20082;-84
2023/07/10 07:51:04;;;;;;;7.63;3.20;;;26.30;99.90;;;;;;5072535;28;20025;-84
2023/07/10 07:53:34;;;;;;;7.65;4.03;;;26.30;99.90;;;;;;5072676;28;20025;-84
2023/07/10 07:56:00;;;;;;;6.30;3.35;;;26.40;99.90;;;;;;5073141;28;20454;-86
2023/07/10 07:58:26;;;;;;;7.30;3.50;;;26.40;99.90;;;;;;5073046;28;20034;-85
2023/07/10 08:00:51;;;;;;;4.72;3.83;;;26.40;99.90;;;;;;5072719;28;20047;-84
2023/07/10 08:03:17;;;;;;;6.13;3.78;;;26.40;99.90;;;;;;5072329;28;20020;-85
2023/07/10 08:05:43;;;;;;;6.20;3.30;;;26.50;99.90;;;;;;5074824;28;20459;-86
2023/07/10 08:08:13;;;;;;;5.88;3.85;;;26.50;99.90;;;;;;5076743;28;20024;-86
2023/07/10 08:10:46;;;;;;;10.18;3.97;;;26.50;99.90;;;;;;5076532;28;20028;-86
2023/07/10 08:13:12;;;;;;;7.95;3.40;;;26.50;99.90;;;;;;5076044;28;20111;-85
2023/07/10 08:15:39;;;;;;;7.45;3.40;;;26.50;99.90;;;;;;5076716;28;20052;-86
2023/07/10 08:18:04;;;;;;;8.45;3.75;;;26.60;99.90;;;;;;5076045;28;20024;-86
2023/07/10 08:20:30;;;;;;;6.75;3.70;;;26.60;99.90;;;;;;5074836;28;20020;-84
2023/07/10 08:22:56;;;;;;;7.22;3.65;;;26.70;99.90;;;;;;5071014;28;20028;-85
2023/07/10 08:25:22;;;;;;;4.90;3.60;;;26.70;99.90;;;;;;5075799;28;20024;-86
2023/07/10 08:27:47;;;;;;;5.75;3.70;;;26.70;99.90;;;;;;5075585;28;20027;-85
2023/07/10 08:30:14;;;;;;;5.22;4.18;;;26.80;99.90;;;;;;5075127;28;20510;-85
2023/07/10 08:32:41;;;;;;;7.00;3.53;;;26.80;99.90;;;;;;5075216;28;20032;-85
2023/07/10 08:35:07;;;;;;;5.65;3.65;;;26.90;99.90;;;;;;5074739;28;20016;-87
2023/07/10 08:37:33;;;;;;;5.45;3.70;;;26.90;99.90;;;;;;5075007;28;20027;-87
2023/07/10 08:39:59;;;;;;;7.35;4.53;;;27.00;99.90;;;;;;5074650;28;20059;-83
2023/07/10 08:42:29;;;;;;;5.85;3.65;;;27.10;99.90;;;;;;5075126;28;20021;-83
2023/07/10 08:44:56;;;;;;;7.47;3.58;;;27.10;99.90;;;;;;5074195;28;20032;-85
2023/07/10 08:47:25;;;;;;;7.53;3.90;;;27.10;99.90;;;;;;5076990;28;20078;-84
2023/07/10 08:50:14;;;;;;;5.30;3.80;;;27.10;99.90;;;;;;5070708;28;20021;-84
2023/07/10 08:53:04;;;;;;;5.50;3.50;;;27.20;99.90;;;;;;5076445;28;20369;-84
2023/07/10 08:55:42;;;;;;;7.25;3.70;;;27.20;99.90;;;;;;5075832;28;20033;-84
2023/07/10 08:58:22;;;;;;;6.72;4.03;;;27.30;99.90;;;;;;5071725;28;20135;-83
2023/07/10 09:00:51;;;;;;;6.85;3.50;;;27.30;99.90;;;;;;5077014;28;20027;-84
2023/07/10 09:03:34;;;;;;;5.97;4.63;;;27.30;99.90;;;;;;5075047;28;20032;-84
2023/07/10 09:06:01;;;;;;;7.15;3.95;;;27.40;99.90;;;;;;5076243;28;20020;-82
2023/07/10 09:08:28;;;;;;;6.50;3.70;;;27.40;99.90;;;;;;5075166;28;20054;-84
2023/07/10 09:10:57;;;;;;;7.45;3.60;;;27.40;99.90;;;;;;5075260;28;20027;-85
2023/07/10 09:13:34;;;;;;;6.85;3.47;;;27.40;99.90;;;;;;5076021;28;20025;-84
2023/07/10 09:16:01;;;;;;;8.57;3.95;;;27.40;99.90;;;;;;5075200;28;20017;-83
2023/07/10 09:18:40;;;;;;;6.07;3.92;;;27.50;99.90;;;;;;5075013;28;20082;-85
2023/07/10 09:21:22;;;;;;;5.88;4.00;;;27.50;99.90;;;;;;5073452;28;20078;-83
2023/07/10 09:23:48;;;;;;;4.93;3.50;;;27.60;99.90;;;;;;5073113;28;20021;-84
2023/07/10 09:26:25;;;;;;;5.22;3.67;;;27.70;99.90;;;;;;5073022;28;20054;-84
2023/07/10 09:29:14;;;;;;;7.72;3.67;;;27.70;99.90;;;;;;5073452;28;20060;-84
2023/07/10 09:32:11;;;;;;;6.75;3.92;;;27.80;99.90;;;;;;5058998;28;20036;-85
2023/07/10 09:34:57;;;;;;;5.18;4.22;;;27.80;99.90;;;;;;5065991;28;20024;-85
2023/07/10 09:37:29;;;;;;;5.38;3.63;;;27.90;99.90;;;;;;5074740;28;20013;-85
2023/07/10 09:39:55;;;;;;;9.20;3.75;;;28.00;99.90;;;;;;5074939;28;20035;-85
2023/07/10 09:42:31;;;;;;;5.95;3.75;;;28.00;99.90;;;;;;5073728;28;20119;-84
2023/07/10 09:44:59;;;;;;;5.40;3.70;;;28.00;99.90;;;;;;5074151;28;20131;-85
2023/07/10 09:47:39;;;;;;;6.47;3.45;;;28.10;99.90;;;;;;5074214;28;20031;-85
2023/07/10 09:50:09;;;;;;;8.07;4.60;;;28.10;99.90;;;;;;5074373;28;20021;-83
2023/07/10 09:52:40;;;;;;;6.00;3.70;;;28.20;99.90;;;;;;5074137;28;20023;-84
2023/07/10 09:55:15;;;;;;;6.60;3.95;;;28.20;99.90;;;;;;5070820;28;20135;-84
2023/07/10 09:57:50;;;;;;;6.55;4.22;;;28.10;99.90;;;;;;5075033;28;20038;-85
2023/07/10 10:00:17;;;;;;;6.78;3.72;;;28.20;99.90;;;;;;5073747;28;20085;-84
2023/07/10 10:02:47;;;;;;;7.47;4.25;;;28.20;99.90;;;;;;5074135;28;20107;-85
2023/07/10 10:05:12;;;;;;;5.85;3.42;;;28.10;99.90;;;;;;5073761;28;20017;-86
2023/07/10 10:07:44;;;;;;;5.72;3.83;;;28.20;99.90;;;;;;5074967;28;20082;-85
2023/07/10 10:10:45;;;;;;;7.60;3.60;;;28.30;99.60;;;;;;5072596;28;20036;-84
2023/07/10 10:13:27;;;;;;;5.55;3.72;;;28.30;99.40;;;;;;5035056;28;20060;-84
2023/07/10 10:16:16;;;;;;;6.65;3.83;;;28.30;99.80;;;;;;5069985;28;20032;-85
2023/07/10 10:19:00;;;;;;;5.90;3.78;;;28.40;99.40;;;;;;5053974;28;20420;-85
2023/07/10 10:21:28;;;;;;;5.78;3.60;;;28.40;99.40;;;;;;5061370;28;20136;-85
2023/07/10 10:24:05;;;;;;;6.30;3.55;;;28.50;99.30;;;;;;5073489;28;20074;-85
2023/07/10 10:27:01;;;;;;;6.95;3.50;;;28.60;99.20;;;;;;5073358;28;20505;-85
2023/07/10 10:29:58;;;;;;;7.85;3.92;;;28.60;98.80;;;;;;5072910;28;20037;-85
2023/07/10 10:32:58;;;;;;;4.65;3.25;;;28.70;98.30;;;;;;5073347;28;20032;-85
2023/07/10 10:36:03;;;;;;;4.38;3.13;;;28.70;97.60;;;;;;5073544;28;20044;-85
2023/07/10 10:38:57;;;;;;;4.35;3.42;;;28.70;97.30;;;;;;5074543;28;20069;-85
2023/07/10 10:41:45;;;;;;;6.43;3.40;;;28.70;97.30;;;;;;5074063;28;20031;-84
2023/07/10 10:44:35;;;;;;;6.35;3.50;;;28.80;96.60;;;;;;5072479;28;20174;-85
2023/07/10 10:47:14;;;;;;;4.13;2.97;;;29.00;96.60;;;;;;5074537;28;20021;-85
2023/07/10 10:49:46;;;;;;;4.28;3.63;;;29.00;96.70;;;;;;5060724;28;20078;-87
2023/07/10 10:52:24;;;;;;;4.72;3.60;;;29.10;96.30;;;;;;5073208;28;20089;-86
2023/07/10 10:54:58;;;;;;;4.68;3.10;;;29.00;95.50;;;;;;5073624;28;20036;-86
2023/07/10 10:57:40;;;;;;;4.82;3.10;;;29.00;95.10;;;;;;5071873;28;20024;-92
2023/07/10 11:00:29;;;;;;;4.15;3.13;;;28.90;95.00;;;;;;5069067;28;20025;-92
2023/07/10 11:03:33;;;;;;;5.78;3.08;;;28.90;94.80;;;;;;5065252;28;20064;-91
2023/07/10 11:06:18;;;;;;;4.82;3.33;;;29.00;95.00;;;;;;5073220;28;20090;-88
2023/07/10 11:08:50;;;;;;;5.78;3.75;;;28.90;94.40;;;;;;5056060;28;20025;-86
2023/07/10 11:11:34;;;;;;;5.85;3.40;;;29.00;94.40;;;;;;5072765;28;20024;-87
2023/07/10 11:14:03;;;;;;;4.70;2.92;;;29.10;94.50;;;;;;5068572;28;20044;-91
2023/07/10 11:16:31;;;;;;;6.65;2.88;;;29.10;94.20;;;;;;5072737;28;20028;-90
2023/07/10 11:18:58;;;;;;;3.75;2.90;;;29.20;94.40;;;;;;5072676;28;20032;-90
2023/07/10 11:21:24;;;;;;;3.42;2.65;;;29.30;92.20;;;;;;5071959;28;20024;-86
2023/07/10 11:23:50;;;;;;;4.70;2.65;;;29.20;91.40;;;;;;5073099;28;20034;-89
2023/07/10 11:26:21;;;;;;;5.93;2.63;;;29.30;91.90;;;;;;5070423;28;20032;-90
2023/07/10 11:28:50;;;;;;;3.35;2.42;;;29.30;91.90;;;;;;5071940;28;20057;-89
2023/07/10 11:31:18;;;;;;;5.18;2.85;;;29.50;91.00;;;;;;5072175;28;20029;-90
2023/07/10 11:33:48;;;;;;;4.45;2.38;;;29.60;90.90;;;;;;5072419;28;20025;-90
2023/07/10 11:36:29;;;;;;;4.65;2.55;;;29.70;90.00;;;;;;5072496;28;20079;-90
2023/07/10 11:39:19;;;;;;;5.32;2.75;;;29.70;88.70;;;;;;5072006;28;20041;-89
2023/07/10 11:41:44;;;;;;;3.90;2.30;;;29.70;88.60;;;;;;5076322;28;20028;-89
2023/07/10 11:44:33;;;;;;;3.30;2.33;;;29.70;87.10;;;;;;5077304;28;20465;-89
2023/07/10 11:47:01;;;;;;;6.10;3.00;;;29.80;86.90;;;;;;5056995;28;20052;-89
2023/07/10 11:49:45;;;;;;;6.93;2.60;;;29.90;87.40;;;;;;5067116;28;20035;-88
2023/07/10 11:52:14;;;;;;;2.83;2.25;;;29.90;86.40;;;;;;5076954;28;20449;-93
2023/07/10 11:54:45;;;;;;;6.13;2.78;;;29.90;85.70;;;;;;5077373;28;20090;-91
2023/07/10 11:57:14;;;;;;;3.85;2.70;;;29.90;84.70;;;;;;5075933;28;20021;-90
2023/07/10 11:59:52;;;;;;;3.70;2.60;;;29.90;84.10;;;;;;5076369;28;20031;-91
2023/07/10 12:02:38;;;;;;;4.68;2.40;;;29.90;85.80;;;;;;5085792;28;20074;-90
2023/07/10 12:05:18;;;;;;;3.38;2.50;;;29.90;86.20;;;;;;5077911;28;20020;-88
2023/07/10 12:07:58;;;;;;;7.20;2.63;;;30.00;85.90;;;;;;5091931;28;20047;-90
2023/07/10 12:10:26;;;;;;;4.85;2.60;;;30.00;85.50;;;;;;5088508;28;20039;-84
2023/07/10 12:12:52;;;;;;;4.43;2.53;;;30.10;81.60;;;;;;5085319;28;20030;-91
2023/07/10 12:15:18;;;;;;;5.25;2.70;;;30.00;81.30;;;;;;5097235;28;20092;-89
2023/07/10 12:17:43;;;;;;;4.90;2.42;;;30.00;80.40;;;;;;5093647;28;20013;-90
2023/07/10 12:20:28;;;;;;;4.70;3.10;;;30.10;81.10;;;;;;5092937;28;20341;-86
2023/07/10 12:23:02;;;;;;;3.67;2.25;;;30.20;81.00;;;;;;5077141;28;20022;-85
2023/07/10 12:25:28;;;;;;;3.22;2.38;;;30.30;76.10;;;;;;5076073;28;20070;-85
2023/07/10 12:27:54;;;;;;;4.68;2.50;;;30.30;77.50;;;;;;5076307;28;20028;-85
2023/07/10 12:30:23;;;;;;;4.47;2.35;;;30.40;77.50;;;;;;5089769;28;20088;-92
2023/07/10 12:32:51;;;;;;;4.80;2.53;;;30.50;78.50;;;;;;5080336;28;20078;-93
2023/07/10 12:35:30;;;;;;;4.18;2.78;;;30.70;78.60;;;;;;5077636;28;20025;-91
2023/07/10 12:37:58;;;;;;;3.17;2.17;;;30.70;79.00;;;;;;5077093;28;20025;-92
2023/07/10 12:40:25;;;;;;;4.05;2.38;;;30.70;76.50;;;;;;5077901;28;20084;-93
2023/07/10 12:42:51;;;;;;;4.63;2.47;;;30.80;76.40;;;;;;5076824;28;20073;-93
2023/07/10 12:45:21;;;;;;;4.70;2.30;;;30.90;75.40;;;;;;5075209;28;20131;-90
2023/07/10 12:48:14;;;;;;;2.80;2.15;;;30.90;73.40;;;;;;5075863;28;20351;-93
2023/07/10 12:50:46;;;;;;;3.92;2.60;;;30.90;73.50;;;;;;5073856;28;20025;-93
2023/07/10 12:53:19;;;;;;;6.35;2.38;;;30.80;73.30;;;;;;5086043;28;20031;-89
2023/07/10 12:55:45;;;;;;;5.40;2.33;;;30.90;74.10;;;;;;5084976;28;20021;-91
2023/07/10 12:58:15;;;;;;;3.83;2.00;;;31.00;73.90;;;;;;5078669;28;20507;-86
2023/07/10 13:00:46;;;;;;;5.88;2.40;;;31.10;73.40;;;;;;5077249;28;20023;-93